AAL144A KLAS-KSFO
Flight info
| Callsign | AAL144A |
|---|---|
| Flight time | N/A |
| Altitude | 30000 |
| Route | JOHKR5 KENNO RUSME DYAMD5 |
| Aircraft | A321/M-VGDW/C |
Departure
| Time | 2026-05-06 18:04 |
|---|---|
| Airport | Harry Reid International Airport (KLAS) |
Arrival
| Time | N/A |
|---|---|
| Airport | San Francisco International Airport (KSFO) |
| Time | Latitude | Longitude | Altitude | Speed | Heading |
|---|---|---|---|---|---|
| 2026-05-06 17:43 | 36.08495 | -115.15490 | 2193 ft | 0 kts | 66° |
| 2026-05-06 17:50 | 36.08495 | -115.15491 | 2193 ft | 0 kts | 66° |
| 2026-05-06 17:52 | 36.08493 | -115.15494 | 2193 ft | 2 kts | 66° |
| 2026-05-06 17:52 | 36.08487 | -115.15512 | 2193 ft | 3 kts | 66° |
| 2026-05-06 17:52 | 36.08479 | -115.15534 | 2193 ft | 3 kts | 66° |
| 2026-05-06 17:52 | 36.08471 | -115.15557 | 2193 ft | 3 kts | 66° |
| 2026-05-06 17:53 | 36.08467 | -115.15567 | 2193 ft | 0 kts | 66° |
| 2026-05-06 17:53 | 36.08468 | -115.15565 | 2193 ft | 0 kts | 66° |
| 2026-05-06 17:54 | 36.08318 | -115.15074 | 2193 ft | 0 kts | 185° |
| 2026-05-06 17:54 | 36.08319 | -115.15074 | 2193 ft | 1 kts | 185° |
| 2026-05-06 17:55 | 36.08331 | -115.15072 | 2193 ft | 2 kts | 185° |
| 2026-05-06 17:55 | 36.08342 | -115.15071 | 2193 ft | 0 kts | 185° |
| 2026-05-06 17:55 | 36.08330 | -115.15064 | 2193 ft | 4 kts | 128° |
| 2026-05-06 17:55 | 36.08317 | -115.15022 | 2193 ft | 7 kts | 112° |
| 2026-05-06 17:56 | 36.08289 | -115.14978 | 2193 ft | 6 kts | 153° |
| 2026-05-06 17:56 | 36.08241 | -115.14947 | 2193 ft | 10 kts | 150° |
| 2026-05-06 17:56 | 36.08164 | -115.14905 | 2193 ft | 13 kts | 161° |
| 2026-05-06 17:56 | 36.08086 | -115.14871 | 2193 ft | 7 kts | 156° |
| 2026-05-06 17:57 | 36.08059 | -115.14857 | 2193 ft | 3 kts | 157° |
| 2026-05-06 17:57 | 36.08034 | -115.14845 | 2193 ft | 4 kts | 159° |
| 2026-05-06 17:57 | 36.08011 | -115.14834 | 2193 ft | 0 kts | 157° |
| 2026-05-06 17:57 | 36.08010 | -115.14833 | 2193 ft | 1 kts | 157° |
| 2026-05-06 17:58 | 36.08002 | -115.14829 | 2193 ft | 2 kts | 157° |
| 2026-05-06 17:58 | 36.07987 | -115.14821 | 2193 ft | 3 kts | 157° |
| 2026-05-06 17:58 | 36.07983 | -115.14819 | 2193 ft | 0 kts | 157° |
| 2026-05-06 17:59 | 36.07976 | -115.14816 | 2193 ft | 2 kts | 158° |
| 2026-05-06 17:59 | 36.07960 | -115.14808 | 2193 ft | 4 kts | 156° |
| 2026-05-06 17:59 | 36.07895 | -115.14773 | 2193 ft | 14 kts | 152° |
| 2026-05-06 17:59 | 36.07873 | -115.14758 | 2193 ft | 1 kts | 148° |
| 2026-05-06 18:00 | 36.07840 | -115.14682 | 2193 ft | 19 kts | 95° |
| 2026-05-06 18:00 | 36.07832 | -115.14502 | 2193 ft | 23 kts | 91° |
| 2026-05-06 18:00 | 36.07828 | -115.14282 | 2193 ft | 27 kts | 91° |
| 2026-05-06 18:00 | 36.07823 | -115.14032 | 2193 ft | 31 kts | 91° |
| 2026-05-06 18:01 | 36.07828 | -115.13773 | 2193 ft | 31 kts | 89° |
| 2026-05-06 18:01 | 36.07828 | -115.13500 | 2193 ft | 33 kts | 90° |
| 2026-05-06 18:01 | 36.07826 | -115.13228 | 2193 ft | 32 kts | 90° |
| 2026-05-06 18:01 | 36.07823 | -115.12948 | 2193 ft | 31 kts | 90° |
| 2026-05-06 18:02 | 36.07822 | -115.12690 | 2193 ft | 25 kts | 88° |
| 2026-05-06 18:02 | 36.07825 | -115.12489 | 2193 ft | 24 kts | 90° |
| 2026-05-06 18:02 | 36.07805 | -115.12309 | 2193 ft | 19 kts | 121° |
| 2026-05-06 18:02 | 36.07728 | -115.12239 | 2193 ft | 1 kts | 172° |
| 2026-05-06 18:03 | 36.07717 | -115.12238 | 2193 ft | 4 kts | 176° |
| 2026-05-06 18:03 | 36.07658 | -115.12252 | 2193 ft | 6 kts | 238° |
| 2026-05-06 18:03 | 36.07641 | -115.12327 | 2193 ft | 21 kts | 264° |
| 2026-05-06 18:03 | 36.07642 | -115.12822 | 2193 ft | 94 kts | 271° |
| 2026-05-06 18:04 | 36.07627 | -115.13819 | 2193 ft | 143 kts | 269° |
| 2026-05-06 18:04 | 36.07652 | -115.15058 | 2847 ft | 141 kts | 272° |
| 2026-05-06 18:04 | 36.07669 | -115.16277 | 3247 ft | 149 kts | 269° |
| 2026-05-06 18:04 | 36.07517 | -115.17605 | 3668 ft | 164 kts | 258° |
| 2026-05-06 18:05 | 36.07152 | -115.18965 | 4286 ft | 168 kts | 250° |
| 2026-05-06 18:05 | 36.06707 | -115.20298 | 4993 ft | 165 kts | 247° |
| 2026-05-06 18:05 | 36.06248 | -115.21567 | 5709 ft | 160 kts | 246° |
| 2026-05-06 18:05 | 36.05716 | -115.22794 | 6247 ft | 169 kts | 238° |
| 2026-05-06 18:06 | 36.04664 | -115.23660 | 6591 ft | 191 kts | 211° |
| 2026-05-06 18:06 | 36.03558 | -115.24594 | 7063 ft | 195 kts | 229° |
| 2026-05-06 18:06 | 36.02616 | -115.25859 | 7557 ft | 207 kts | 226° |
| 2026-05-06 18:06 | 36.01427 | -115.26965 | 8033 ft | 222 kts | 219° |
| 2026-05-06 18:07 | 36.00073 | -115.28029 | 8497 ft | 244 kts | 214° |
| 2026-05-06 18:07 | 35.98538 | -115.29048 | 8977 ft | 254 kts | 211° |
| 2026-05-06 18:07 | 35.96946 | -115.30049 | 9533 ft | 261 kts | 211° |
| 2026-05-06 18:07 | 35.95299 | -115.31100 | 10092 ft | 270 kts | 212° |
| 2026-05-06 18:08 | 35.93631 | -115.32264 | 10656 ft | 284 kts | 214° |
| 2026-05-06 18:08 | 35.91861 | -115.33558 | 11222 ft | 305 kts | 214° |
| 2026-05-06 18:08 | 35.90128 | -115.35130 | 11761 ft | 313 kts | 227° |
| 2026-05-06 18:08 | 35.88967 | -115.37383 | 12324 ft | 318 kts | 247° |
| 2026-05-06 18:09 | 35.88303 | -115.40010 | 12894 ft | 323 kts | 258° |
| 2026-05-06 18:09 | 35.88032 | -115.42772 | 13474 ft | 326 kts | 267° |
| 2026-05-06 18:09 | 35.88013 | -115.45568 | 14172 ft | 328 kts | 271° |
| 2026-05-06 18:09 | 35.88095 | -115.48400 | 14877 ft | 332 kts | 272° |
| 2026-05-06 18:10 | 35.88220 | -115.51257 | 15580 ft | 335 kts | 273° |
| 2026-05-06 18:10 | 35.88364 | -115.54156 | 16286 ft | 339 kts | 273° |
| 2026-05-06 18:10 | 35.88517 | -115.57067 | 16987 ft | 342 kts | 273° |
| 2026-05-06 18:10 | 35.88674 | -115.60013 | 17690 ft | 346 kts | 274° |
| 2026-05-06 18:11 | 35.88835 | -115.62987 | 18392 ft | 349 kts | 274° |
| 2026-05-06 18:11 | 35.88998 | -115.65995 | 19096 ft | 353 kts | 274° |
| 2026-05-06 18:11 | 35.89164 | -115.69031 | 19798 ft | 357 kts | 274° |
| 2026-05-06 18:11 | 35.89332 | -115.72096 | 20500 ft | 360 kts | 274° |
| 2026-05-06 18:12 | 35.89483 | -115.75198 | 21204 ft | 364 kts | 272° |
| 2026-05-06 18:12 | 35.89573 | -115.78328 | 21907 ft | 368 kts | 271° |
| 2026-05-06 18:12 | 35.89632 | -115.81501 | 22610 ft | 372 kts | 271° |
| 2026-05-06 18:12 | 35.89676 | -115.84706 | 23312 ft | 376 kts | 271° |
| 2026-05-06 18:13 | 35.89728 | -115.87942 | 24013 ft | 380 kts | 271° |
| 2026-05-06 18:13 | 35.90108 | -115.91173 | 24711 ft | 383 kts | 285° |
| 2026-05-06 18:13 | 35.91256 | -115.94110 | 25415 ft | 387 kts | 300° |
| 2026-05-06 18:13 | 35.92853 | -115.96811 | 26134 ft | 390 kts | 307° |
| 2026-05-06 18:14 | 35.94635 | -115.99339 | 26845 ft | 392 kts | 310° |
| 2026-05-06 18:14 | 35.96539 | -116.01760 | 27558 ft | 393 kts | 312° |
| 2026-05-06 18:14 | 35.98484 | -116.04131 | 28153 ft | 396 kts | 313° |
| 2026-05-06 18:14 | 36.00473 | -116.06519 | 28631 ft | 402 kts | 313° |
| 2026-05-06 18:15 | 36.02501 | -116.08939 | 29022 ft | 407 kts | 314° |
| 2026-05-06 18:15 | 36.04559 | -116.11388 | 29301 ft | 414 kts | 314° |
| 2026-05-06 18:15 | 36.06629 | -116.13851 | 29556 ft | 420 kts | 314° |
| 2026-05-06 18:15 | 36.08750 | -116.16374 | 29785 ft | 424 kts | 314° |
| 2026-05-06 18:16 | 36.10892 | -116.18923 | 29922 ft | 428 kts | 314° |
| 2026-05-06 18:16 | 36.13044 | -116.21484 | 29989 ft | 431 kts | 314° |
| 2026-05-06 18:16 | 36.17388 | -116.26656 | 29998 ft | 434 kts | 314° |
| 2026-05-06 18:17 | 36.21740 | -116.31857 | 29996 ft | 435 kts | 313° |
| 2026-05-06 18:17 | 36.26057 | -116.37125 | 29996 ft | 435 kts | 313° |
| 2026-05-06 18:18 | 36.30324 | -116.42376 | 29996 ft | 435 kts | 313° |
| 2026-05-06 18:18 | 36.34631 | -116.47686 | 29996 ft | 436 kts | 313° |
| 2026-05-06 18:19 | 36.38930 | -116.52988 | 29996 ft | 436 kts | 313° |
| 2026-05-06 18:19 | 36.43245 | -116.58315 | 29996 ft | 438 kts | 313° |
| 2026-05-06 18:20 | 36.47560 | -116.63655 | 29996 ft | 440 kts | 313° |
| 2026-05-06 18:20 | 36.51909 | -116.69025 | 29996 ft | 441 kts | 313° |
| 2026-05-06 18:21 | 36.56277 | -116.74412 | 29996 ft | 442 kts | 313° |
| 2026-05-06 18:21 | 36.60695 | -116.79676 | 29996 ft | 443 kts | 314° |
| 2026-05-06 18:22 | 36.65210 | -116.84905 | 29996 ft | 443 kts | 315° |
| 2026-05-06 18:22 | 36.69810 | -116.90027 | 29996 ft | 443 kts | 316° |
| 2026-05-06 18:23 | 36.74654 | -116.94800 | 29997 ft | 446 kts | 324° |
| 2026-05-06 18:23 | 36.80026 | -116.98734 | 30002 ft | 448 kts | 329° |
| 2026-05-06 18:24 | 36.85572 | -117.02298 | 29999 ft | 449 kts | 331° |
| 2026-05-06 18:24 | 36.91218 | -117.05686 | 29996 ft | 449 kts | 332° |
| 2026-05-06 18:25 | 36.96842 | -117.08989 | 29996 ft | 449 kts | 332° |
| 2026-05-06 18:25 | 37.02522 | -117.12304 | 29996 ft | 449 kts | 332° |
| 2026-05-06 18:26 | 37.08194 | -117.15608 | 29996 ft | 449 kts | 332° |
| 2026-05-06 18:26 | 37.13867 | -117.18911 | 29996 ft | 449 kts | 332° |
| 2026-05-06 18:27 | 37.19539 | -117.22213 | 29996 ft | 449 kts | 332° |
| 2026-05-06 18:27 | 37.25216 | -117.25516 | 29996 ft | 449 kts | 332° |
| 2026-05-06 18:28 | 37.30857 | -117.28797 | 29996 ft | 449 kts | 332° |
| 2026-05-06 18:28 | 37.36539 | -117.32105 | 29996 ft | 449 kts | 332° |
| 2026-05-06 18:29 | 37.39222 | -117.34093 | 29995 ft | 445 kts | 321° |
| 2026-05-06 18:29 | 37.41514 | -117.36686 | 30010 ft | 443 kts | 312° |
| 2026-05-06 18:29 | 37.45527 | -117.42549 | 30013 ft | 441 kts | 306° |
| 2026-05-06 18:30 | 37.48874 | -117.48938 | 30002 ft | 438 kts | 292° |
| 2026-05-06 18:30 | 37.50513 | -117.56299 | 30014 ft | 437 kts | 281° |
| 2026-05-06 18:31 | 37.51485 | -117.63863 | 30007 ft | 436 kts | 277° |
| 2026-05-06 18:31 | 37.52271 | -117.71400 | 29997 ft | 436 kts | 277° |
| 2026-05-06 18:32 | 37.53015 | -117.79001 | 29996 ft | 436 kts | 276° |
| 2026-05-06 18:32 | 37.53746 | -117.86582 | 29996 ft | 436 kts | 276° |
| 2026-05-06 18:33 | 37.54353 | -117.92891 | 29996 ft | 436 kts | 276° |
| 2026-05-06 18:33 | 37.55203 | -118.01723 | 29996 ft | 436 kts | 276° |
| 2026-05-06 18:34 | 37.55812 | -118.08018 | 29996 ft | 436 kts | 276° |
| 2026-05-06 18:34 | 37.56547 | -118.15607 | 29996 ft | 436 kts | 276° |
| 2026-05-06 18:35 | 37.57284 | -118.23196 | 29996 ft | 436 kts | 276° |
| 2026-05-06 18:35 | 37.58020 | -118.30750 | 29996 ft | 435 kts | 276° |
| 2026-05-06 18:36 | 37.58721 | -118.38334 | 29996 ft | 435 kts | 275° |
| 2026-05-06 18:36 | 37.59299 | -118.45942 | 29996 ft | 435 kts | 275° |
| 2026-05-06 18:37 | 37.59836 | -118.53554 | 29996 ft | 435 kts | 275° |
| 2026-05-06 18:37 | 37.60363 | -118.61134 | 29955 ft | 436 kts | 275° |
| 2026-05-06 18:38 | 37.60627 | -118.64946 | 29757 ft | 438 kts | 275° |
| 2026-05-06 18:38 | 37.60892 | -118.68768 | 29516 ft | 437 kts | 275° |
| 2026-05-06 18:38 | 37.61157 | -118.72584 | 29267 ft | 435 kts | 275° |
| 2026-05-06 18:38 | 37.61421 | -118.76391 | 29016 ft | 434 kts | 275° |
| 2026-05-06 18:39 | 37.61685 | -118.80181 | 28766 ft | 432 kts | 275° |
| 2026-05-06 18:39 | 37.61948 | -118.83941 | 28516 ft | 430 kts | 275° |
| 2026-05-06 18:39 | 37.62211 | -118.87700 | 28265 ft | 429 kts | 275° |
| 2026-05-06 18:40 | 37.62735 | -118.95170 | 27764 ft | 425 kts | 275° |
| 2026-05-06 18:40 | 37.62996 | -118.98877 | 27514 ft | 424 kts | 275° |
| 2026-05-06 18:40 | 37.63253 | -119.02525 | 27268 ft | 422 kts | 275° |
| 2026-05-06 18:40 | 37.63517 | -119.06250 | 27108 ft | 419 kts | 275° |
| 2026-05-06 18:41 | 37.63772 | -119.09852 | 27017 ft | 416 kts | 275° |
| 2026-05-06 18:41 | 37.64030 | -119.13483 | 26994 ft | 415 kts | 275° |
| 2026-05-06 18:41 | 37.64288 | -119.17107 | 26994 ft | 415 kts | 275° |
| 2026-05-06 18:41 | 37.64546 | -119.20727 | 26995 ft | 415 kts | 275° |
| 2026-05-06 18:42 | 37.64804 | -119.24354 | 26996 ft | 415 kts | 275° |
| 2026-05-06 18:42 | 37.65063 | -119.27976 | 26996 ft | 415 kts | 275° |
| 2026-05-06 18:42 | 37.65323 | -119.31603 | 26996 ft | 415 kts | 275° |
| 2026-05-06 18:42 | 37.65583 | -119.35225 | 26996 ft | 415 kts | 275° |
| 2026-05-06 18:43 | 37.65676 | -119.36519 | 26996 ft | 415 kts | 275° |
| 2026-05-06 18:43 | 37.65762 | -119.37719 | 26996 ft | 415 kts | 275° |
| 2026-05-06 18:43 | 37.66023 | -119.41342 | 26996 ft | 415 kts | 275° |
| 2026-05-06 18:43 | 37.66284 | -119.44965 | 26996 ft | 415 kts | 275° |
| 2026-05-06 18:44 | 37.66543 | -119.48556 | 26996 ft | 415 kts | 275° |
| 2026-05-06 18:44 | 37.66805 | -119.52182 | 26996 ft | 415 kts | 275° |
| 2026-05-06 18:44 | 37.67067 | -119.55802 | 26996 ft | 415 kts | 275° |
| 2026-05-06 18:44 | 37.67332 | -119.59449 | 26996 ft | 414 kts | 275° |
| 2026-05-06 18:45 | 37.67593 | -119.63050 | 26995 ft | 409 kts | 275° |
| 2026-05-06 18:45 | 37.67853 | -119.66612 | 26995 ft | 405 kts | 275° |
| 2026-05-06 18:45 | 37.68111 | -119.70144 | 26995 ft | 403 kts | 275° |
| 2026-05-06 18:45 | 37.68308 | -119.72846 | 26995 ft | 402 kts | 275° |
| 2026-05-06 18:46 | 37.68566 | -119.76368 | 26995 ft | 400 kts | 275° |
| 2026-05-06 18:46 | 37.68822 | -119.79859 | 26996 ft | 400 kts | 275° |
| 2026-05-06 18:46 | 37.69080 | -119.83368 | 26996 ft | 399 kts | 275° |
| 2026-05-06 18:46 | 37.69337 | -119.86856 | 26996 ft | 399 kts | 275° |
| 2026-05-06 18:47 | 37.69590 | -119.90292 | 26996 ft | 398 kts | 275° |
| 2026-05-06 18:47 | 37.69847 | -119.93776 | 26996 ft | 398 kts | 275° |
| 2026-05-06 18:47 | 37.70105 | -119.97264 | 26996 ft | 398 kts | 275° |
| 2026-05-06 18:47 | 37.70363 | -120.00748 | 26996 ft | 398 kts | 275° |
| 2026-05-06 18:48 | 37.70622 | -120.04235 | 26996 ft | 398 kts | 275° |
| 2026-05-06 18:48 | 37.70878 | -120.07714 | 26996 ft | 398 kts | 274° |
| 2026-05-06 18:48 | 37.71010 | -120.11209 | 26997 ft | 398 kts | 271° |
| 2026-05-06 18:48 | 37.71023 | -120.14706 | 27000 ft | 398 kts | 269° |
| 2026-05-06 18:49 | 37.70979 | -120.18165 | 26998 ft | 398 kts | 269° |
| 2026-05-06 18:49 | 37.70907 | -120.21660 | 26997 ft | 398 kts | 268° |
| 2026-05-06 18:49 | 37.70821 | -120.25156 | 26996 ft | 398 kts | 268° |
| 2026-05-06 18:49 | 37.70729 | -120.28646 | 26996 ft | 398 kts | 268° |
| 2026-05-06 18:50 | 37.70634 | -120.32137 | 26996 ft | 398 kts | 268° |
| 2026-05-06 18:50 | 37.70538 | -120.35633 | 26996 ft | 398 kts | 268° |
| 2026-05-06 18:50 | 37.70442 | -120.39131 | 26996 ft | 398 kts | 268° |
| 2026-05-06 18:50 | 37.70345 | -120.42617 | 26996 ft | 398 kts | 268° |
| 2026-05-06 18:51 | 37.70114 | -120.46118 | 26849 ft | 401 kts | 264° |
| 2026-05-06 18:51 | 37.69717 | -120.49628 | 26421 ft | 405 kts | 261° |
| 2026-05-06 18:51 | 37.69235 | -120.53125 | 25965 ft | 403 kts | 260° |
| 2026-05-06 18:51 | 37.68718 | -120.56577 | 25493 ft | 398 kts | 259° |
| 2026-05-06 18:52 | 37.68193 | -120.59942 | 25022 ft | 391 kts | 259° |
| 2026-05-06 18:52 | 37.67663 | -120.63272 | 24546 ft | 384 kts | 259° |
| 2026-05-06 18:52 | 37.67138 | -120.66538 | 24069 ft | 376 kts | 259° |
| 2026-05-06 18:52 | 37.66618 | -120.69750 | 23592 ft | 369 kts | 259° |
| 2026-05-06 18:53 | 37.66108 | -120.72902 | 23114 ft | 363 kts | 259° |
| 2026-05-06 18:53 | 37.65605 | -120.75996 | 22637 ft | 357 kts | 259° |
| 2026-05-06 18:53 | 37.65112 | -120.79035 | 22162 ft | 351 kts | 259° |
| 2026-05-06 18:53 | 37.64624 | -120.82033 | 21685 ft | 346 kts | 259° |
| 2026-05-06 18:54 | 37.64141 | -120.85001 | 21208 ft | 342 kts | 259° |
| 2026-05-06 18:54 | 37.63672 | -120.87881 | 20738 ft | 335 kts | 259° |
| 2026-05-06 18:54 | 37.63206 | -120.90741 | 20261 ft | 329 kts | 259° |
| 2026-05-06 18:54 | 37.62750 | -120.93537 | 19786 ft | 323 kts | 259° |
| 2026-05-06 18:55 | 37.62300 | -120.96291 | 19309 ft | 318 kts | 259° |
| 2026-05-06 18:55 | 37.61857 | -120.98999 | 18833 ft | 313 kts | 259° |
| 2026-05-06 18:55 | 37.61420 | -121.01675 | 18355 ft | 308 kts | 259° |
| 2026-05-06 18:55 | 37.60988 | -121.04313 | 17877 ft | 304 kts | 259° |
| 2026-05-06 18:56 | 37.60564 | -121.06904 | 17402 ft | 300 kts | 259° |
| 2026-05-06 18:56 | 37.60154 | -121.09474 | 16925 ft | 297 kts | 260° |
| 2026-05-06 18:56 | 37.59795 | -121.11973 | 16458 ft | 293 kts | 261° |
| 2026-05-06 18:56 | 37.59456 | -121.14515 | 15979 ft | 291 kts | 262° |
| 2026-05-06 18:57 | 37.59185 | -121.17036 | 15502 ft | 288 kts | 263° |
| 2026-05-06 18:57 | 37.58951 | -121.19536 | 15027 ft | 286 kts | 264° |
| 2026-05-06 18:57 | 37.58730 | -121.22021 | 14551 ft | 284 kts | 264° |
| 2026-05-06 18:57 | 37.58513 | -121.24495 | 14147 ft | 280 kts | 264° |
| 2026-05-06 18:58 | 37.58308 | -121.26861 | 14032 ft | 268 kts | 264° |
| 2026-05-06 18:58 | 37.58107 | -121.29162 | 14002 ft | 261 kts | 264° |
| 2026-05-06 18:58 | 37.57909 | -121.31441 | 14001 ft | 262 kts | 264° |
| 2026-05-06 18:58 | 37.57710 | -121.33736 | 14002 ft | 266 kts | 264° |
| 2026-05-06 18:59 | 37.57507 | -121.36087 | 14002 ft | 271 kts | 264° |
| 2026-05-06 18:59 | 37.57301 | -121.38470 | 14002 ft | 275 kts | 264° |
| 2026-05-06 18:59 | 37.57093 | -121.40881 | 14001 ft | 277 kts | 264° |
| 2026-05-06 18:59 | 37.56884 | -121.43307 | 14001 ft | 279 kts | 264° |
| 2026-05-06 19:00 | 37.56674 | -121.45741 | 14000 ft | 279 kts | 264° |
| 2026-05-06 19:00 | 37.56466 | -121.48157 | 14000 ft | 280 kts | 264° |
| 2026-05-06 19:00 | 37.56255 | -121.50613 | 13831 ft | 285 kts | 264° |
| 2026-05-06 19:00 | 37.56040 | -121.53115 | 13458 ft | 285 kts | 264° |
| 2026-05-06 19:01 | 37.55829 | -121.55580 | 13081 ft | 280 kts | 264° |
| 2026-05-06 19:01 | 37.55622 | -121.57997 | 12704 ft | 274 kts | 264° |
| 2026-05-06 19:01 | 37.55418 | -121.60363 | 12327 ft | 270 kts | 264° |
| 2026-05-06 19:01 | 37.55218 | -121.62697 | 11950 ft | 265 kts | 264° |
| 2026-05-06 19:02 | 37.54978 | -121.64959 | 11574 ft | 262 kts | 260° |
| 2026-05-06 19:02 | 37.54517 | -121.67160 | 11203 ft | 259 kts | 255° |
| 2026-05-06 19:02 | 37.53967 | -121.69306 | 10827 ft | 256 kts | 253° |
| 2026-05-06 19:02 | 37.53397 | -121.71412 | 10452 ft | 253 kts | 252° |
| 2026-05-06 19:03 | 37.52823 | -121.73503 | 10075 ft | 250 kts | 252° |
| 2026-05-06 19:03 | 37.52257 | -121.75546 | 9872 ft | 241 kts | 252° |
| 2026-05-06 19:03 | 37.51656 | -121.77471 | 9730 ft | 231 kts | 249° |
| 2026-05-06 19:03 | 37.51041 | -121.79276 | 9598 ft | 209 kts | 249° |
| 2026-05-06 19:04 | 37.50496 | -121.80822 | 9392 ft | 186 kts | 248° |
| 2026-05-06 19:04 | 37.49961 | -121.82336 | 8927 ft | 195 kts | 248° |
| 2026-05-06 19:04 | 37.49428 | -121.83923 | 8448 ft | 197 kts | 251° |
| 2026-05-06 19:04 | 37.49115 | -121.85595 | 7976 ft | 196 kts | 260° |
| 2026-05-06 19:05 | 37.48902 | -121.87288 | 7502 ft | 195 kts | 262° |
| 2026-05-06 19:05 | 37.48702 | -121.88972 | 7027 ft | 194 kts | 262° |
| 2026-05-06 19:05 | 37.48507 | -121.90648 | 6551 ft | 193 kts | 263° |
| 2026-05-06 19:05 | 37.48380 | -121.92324 | 6072 ft | 192 kts | 268° |
| 2026-05-06 19:06 | 37.48364 | -121.94003 | 5599 ft | 192 kts | 271° |
| 2026-05-06 19:06 | 37.48393 | -121.95686 | 5121 ft | 193 kts | 275° |
| 2026-05-06 19:06 | 37.48498 | -121.97342 | 4924 ft | 179 kts | 273° |
| 2026-05-06 19:06 | 37.48425 | -121.98784 | 5349 ft | 173 kts | 268° |
| 2026-05-06 19:07 | 37.48626 | -122.00346 | 5170 ft | 190 kts | 289° |
| 2026-05-06 19:07 | 37.48970 | -122.01369 | 5067 ft | 191 kts | 294° |
| 2026-05-06 19:07 | 37.49390 | -122.03468 | 5276 ft | 183 kts | 275° |
| 2026-05-06 19:07 | 37.49571 | -122.05085 | 5591 ft | 190 kts | 285° |
| 2026-05-06 19:08 | 37.50061 | -122.06676 | 5651 ft | 197 kts | 294° |
| 2026-05-06 19:08 | 37.50668 | -122.08219 | 5493 ft | 198 kts | 297° |
| 2026-05-06 19:08 | 37.51380 | -122.09695 | 5267 ft | 198 kts | 304° |
| 2026-05-06 19:08 | 37.52207 | -122.11104 | 4904 ft | 200 kts | 307° |
| 2026-05-06 19:09 | 37.53029 | -122.12506 | 4600 ft | 197 kts | 304° |
| 2026-05-06 19:09 | 37.53765 | -122.13943 | 4314 ft | 198 kts | 304° |
| 2026-05-06 19:09 | 37.54551 | -122.15440 | 3641 ft | 209 kts | 304° |
| 2026-05-06 19:09 | 37.55225 | -122.17020 | 3260 ft | 197 kts | 293° |
| 2026-05-06 19:10 | 37.55376 | -122.18676 | 3041 ft | 192 kts | 270° |
| 2026-05-06 19:10 | 37.55333 | -122.20349 | 3008 ft | 191 kts | 270° |
| 2026-05-06 19:10 | 37.55597 | -122.22011 | 3019 ft | 194 kts | 287° |
| 2026-05-06 19:10 | 37.56184 | -122.23530 | 3085 ft | 194 kts | 298° |
| 2026-05-06 19:11 | 37.56875 | -122.25057 | 2957 ft | 202 kts | 299° |
| 2026-05-06 19:11 | 37.57543 | -122.26611 | 2562 ft | 206 kts | 298° |
| 2026-05-06 19:11 | 37.58197 | -122.28193 | 2095 ft | 197 kts | 297° |
| 2026-05-06 19:11 | 37.58807 | -122.29654 | 1623 ft | 181 kts | 298° |
| 2026-05-06 19:12 | 37.59387 | -122.31028 | 1190 ft | 173 kts | 298° |
| 2026-05-06 19:12 | 37.59942 | -122.32351 | 786 ft | 169 kts | 298° |
| 2026-05-06 19:12 | 37.60487 | -122.33651 | 432 ft | 163 kts | 298° |
| 2026-05-06 19:12 | 37.61012 | -122.34902 | 165 ft | 159 kts | 298° |
| 2026-05-06 19:13 | 37.61520 | -122.36112 | 33 ft | 154 kts | 298° |
| 2026-05-06 19:13 | 37.61989 | -122.37205 | 25 ft | 130 kts | 299° |
| 2026-05-06 19:13 | 37.62009 | -122.37248 | 25 ft | 131 kts | 299° |
| 2026-05-06 19:14 | 37.62224 | -122.37756 | 25 ft | 138 kts | 295° |
| 2026-05-06 19:14 | 37.62673 | -122.38881 | 25 ft | 140 kts | 297° |
| 2026-05-06 19:14 | 37.62726 | -122.39013 | 25 ft | 131 kts | 293° |